Terminal Aerodrome Forecast
Issued by NWS Charleston, WV

Current Version | Previous Version | Graphics & Text | Print | Product List | Glossary On
Versions: 1 2 3 4 5 6 7 8 9 10 11 12 13 14 15 16 17 18 19 20 21 22 23 24 25
000
FTUS41 KRLX 052203 AAB
TAFBKW
TAF AMD
KBKW 052203Z 0522/0618 12012G22KT P6SM VCSH BKN050
      TEMPO 0522/0524 2SM +TSRA OVC014CB
     FM060200 11006KT 3SM SHRA OVC016
     FM060500 16004KT 4SM BR OVC007
     FM061500 26005KT 6SM SHRA BR BKN010=

USA.gov is the U.S. government's official web portal to all federal, state and local government web resources and services.